Flint, United Kingdom
Current Conditions -  °F | °C
As of 2:20 AM on Sunday 21 Dec 2014 (Local Time) from EGGP Reporting Station
Clear Clear  
Wind Chill: 42°   Ceiling: Unl
Heat Index: 46°   Visibility: 6mi
Dew Point: 41°   Wind: 9mph
Humidity: 81%   Direction: 200°SSW
Pressure: 30.3"   Gusts: NA
Location:  53.24°N, 3.13°W
Report Text: EGGP 210220Z 20008KT CAVOK 08/05 Q1026
Loading
Personal Weather Stations






























Interactive Weather Map New forecast layout! Learn more

10-Day Weather Forecast

Advertisements
Track Severe Weather on mobile